Terminal Aerodrome Forecast
Issued by NWS

Current Version | Previous Version | Text Only | Print | Product List | Glossary On
Versions: 1 2 3 4 5 6 7 8 9 10 11 12
000
FTUS43 KOAX 042320
TAFCDR
TAF
KCDR 042320Z 0500/0524 14008KT P6SM SCT100
     FM050400 18006KT P6SM VCSH BKN070
     FM050800 28007KT P6SM SCT070=

USA.gov is the U.S. government's official web portal to all federal, state and local government web resources and services.